Wetterdaten: Oktober 2017
Datum Temp Feuchte Luftdruck Regen Wind Richtung Sonnenschein UV Solar Windben
01.10.2017 11,6 C 86 % 1019,5 hPa 0,0 l/m 1,8 km/h S-SO 7,25 h 1,7 UV-I 300 W/m 3,6 km/h
02.10.2017 13,6 C 87 % 1011,4 hPa 4,8 l/m 3,3 km/h S 1,08 h 1,0 UV-I 87 W/m 10,8 km/h
03.10.2017 11,1 C 92 % 1017,7 hPa 5,4 l/m 0,3 km/h S-SW 1,17 h 1,1 UV-I 125 W/m 8,8 km/h
04.10.2017 10,7 C 82 % 1017,8 hPa 0,2 l/m 3,2 km/h S-SW 0,75 h 1,0 UV-I 114 W/m 23,3 km/h
05.10.2017 9,8 C 93 % 1008,6 hPa 21,2 l/m 14,2 km/h S-SW 0,33 h 1,0 UV-I 70 W/m 33,0 km/h
06.10.2017 9,2 C 95 % 1016,4 hPa 2,2 l/m 10,6 km/h NW 0,42 h 0,7 UV-I 77 W/m 28,2 km/h
07.10.2017 9,3 C 94 % 1013,0 hPa 12,2 l/m 9,8 km/h S-SW 0,00 h 0,9 UV-I 78 W/m 21,3 km/h
08.10.2017 9,1 C 92 % 1015,6 hPa 4,6 l/m 2,1 km/h NW 1,25 h 1,1 UV-I 133 W/m 6,0 km/h
09.10.2017 9,8 C 92 % 1017,6 hPa 3,8 l/m 0,0 km/h S-SW 2,00 h 1,3 UV-I 155 W/m 0,0 km/h
10.10.2017 11,9 C 96 % 1014,5 hPa 12,6 l/m 4,3 km/h S-SW 0,00 h 0,8 UV-I 51 W/m 13,7 km/h
11.10.2017 12,8 C 87 % 1014,5 hPa 0,0 l/m 10,3 km/h S 0,00 h 0,7 UV-I 52 W/m 23,3 km/h
12.10.2017 12,1 C 85 % 1019,5 hPa 2,8 l/m 3,8 km/h S 1,90 h 1,1 UV-I 153 W/m 12,5 km/h
13.10.2017 12,7 C 91 % 1024,3 hPa 0,0 l/m 0,7 km/h S-SW 0,50 h 0,9 UV-I 108 W/m 4,8 km/h
14.10.2017 14,6 C 90 % 1025,6 hPa 0,0 l/m 0,8 km/h S 3,42 h 1,3 UV-I 178 W/m 4,0 km/h
15.10.2017 14,7 C 86 % 1022,8 hPa 0,2 l/m 2,4 km/h S 7,83 h 1,5 UV-I 253 W/m 4,8 km/h
16.10.2017 15,9 C 83 % 1021,9 hPa 0,2 l/m 1,5 km/h S 6,50 h 1,3 UV-I 211 W/m 5,2 km/h
17.10.2017 12,5 C 90 % 1019,3 hPa 0,0 l/m 0,0 km/h S 0,00 h 0,6 UV-I 140 W/m 0,0 km/h
18.10.2017 12,4 C 89 % 1013,3 hPa 0,2 l/m 1,7 km/h S 7,25 h 1,4 UV-I 234 W/m 2,8 km/h
19.10.2017 13,1 C 85 % 1011,4 hPa 0,2 l/m 4,0 km/h S 7,50 h 1,2 UV-I 225 W/m 6,0 km/h
20.10.2017 13,1 C 82 % 1010,9 hPa 4,6 l/m 4,4 km/h S 1,42 h 0,8 UV-I 85 W/m 10,1 km/h
21.10.2017 10,9 C 93 % 1011,6 hPa 3,0 l/m 6,8 km/h S 1,33 h 0,7 UV-I 90 W/m 14,9 km/h
22.10.2017 8,4 C 93 % 1011,3 hPa 8,4 l/m 3,2 km/h S 0,00 h 0,5 UV-I 45 W/m 12,5 km/h
23.10.2017 9,3 C 94 % 1017,6 hPa 9,0 l/m 1,2 km/h S-SW 0,00 h 0,6 UV-I 58 W/m 10,5 km/h
24.10.2017 12,3 C 97 % 1020,4 hPa 2,6 l/m 6,6 km/h S 0,00 h 0,7 UV-I 62 W/m 11,7 km/h
25.10.2017 13,5 C 93 % 1020,5 hPa 2,4 l/m 3,7 km/h S-SW 0,17 h 0,8 UV-I 67 W/m 21,3 km/h
26.10.2017 12,6 C 92 % 1021,6 hPa 0,4 l/m 0,5 km/h NW 0,75 h 0,8 UV-I 96 W/m 6,8 km/h
27.10.2017 9,8 C 90 % 1024,3 hPa 1,2 l/m 3,6 km/h N-NW 0,58 h 0,8 UV-I 81 W/m 16,9 km/h
28.10.2017 8,7 C 94 % 1013,1 hPa 3,4 l/m 10,7 km/h W-SW 0,00 h 0,6 UV-I 34 W/m 32,6 km/h
29.10.2017 6,4 C 89 % 1011,8 hPa 8,0 l/m 10,1 km/h NW 1,67 h 1,0 UV-I 110 W/m 27,0 km/h
30.10.2017 6,3 C 89 % 1024,6 hPa 0,4 l/m 2,7 km/h NW 1,25 h 0,9 UV-I 110 W/m 10,5 km/h
31.10.2017 6,6 C 94 % 1024,0 hPa 3,0 l/m 1,5 km/h S-SW 0,33 h 0,6 UV-I 64 W/m 4,0 km/h
Min-Datum 30.10.17 15.10.17 29.10.17 27 Tage 01.10.17 - - - - 01.10.17
Min-Zeit 06:55 15:15 04:15 - 00:00 - - - - 00:30
Minimum 4,2 C 62 % 999,0 hPa - 0,0 km/h - - - - 0,0 km/h
Max-Datum 16.10.17 15.10.17 27.10.17 05.10.17 29.10.17 - 15.10.17 05.10.17 09.10.17 29.10.17
Max-Zeit 15:15 08:50 21:25 00:00 05:55 - 16:50 13:25 12:40 02:50
Maximum 23,3 C 98 % 1027,1 hPa 21,2 l/m 34,5 km/h
NW
- 7,75 h 2,9 UV-I 629 W/m 64,4 km/h
NW
Durchschnitt 11,1 C 90 % 1017,3 hPa #117,0 l/m 4,2 km/h S #56:39 h 1,0 UV-I 118 W/m 12,6 km/h

Durchschnitt Minimum Temp.8,7 C
Durchschnitt Maximum Temp.14,3 C